Time;durP1;ratioP1;P1;durP2;ratioP2;P2;SDS_P1;SDS_P2;PMS_P1;PMS_P2;Temp;Humidity;BMP_temperature;BMP_pressure;BME280_temperature;BME280_humidity;BME280_pressure;Samples;Min_cycle;Max_cycle;Signal;HPM_P1;HPM_P2
2023/03/22 00:00:54;;;;;;;19.27;8.13;;;12.30;99.90;;;;;;7371572;19;19929;-73
2023/03/22 00:03:22;;;;;;;13.65;7.50;;;12.20;99.90;;;;;;7403651;19;19918;-72
2023/03/22 00:05:48;;;;;;;14.30;8.27;;;12.10;99.90;;;;;;7404820;19;19919;-73
2023/03/22 00:08:14;;;;;;;17.25;8.05;;;12.20;99.90;;;;;;7401969;19;19923;-73
2023/03/22 00:10:41;;;;;;;15.20;8.13;;;12.20;99.90;;;;;;7401206;19;19943;-73
2023/03/22 00:13:08;;;;;;;14.95;7.57;;;12.30;99.90;;;;;;7399764;19;19915;-74
2023/03/22 00:15:35;;;;;;;13.98;7.38;;;12.30;99.90;;;;;;7400612;19;19915;-74
2023/03/22 00:18:04;;;;;;;13.93;6.80;;;12.10;99.90;;;;;;7401397;19;19914;-73
2023/03/22 00:20:32;;;;;;;17.55;7.28;;;12.10;99.90;;;;;;7380781;19;19932;-72
2023/03/22 00:22:58;;;;;;;12.93;5.72;;;12.10;99.90;;;;;;7397883;19;19913;-72
2023/03/22 00:25:24;;;;;;;15.10;6.82;;;12.00;99.90;;;;;;7399034;19;19927;-73
2023/03/22 00:27:50;;;;;;;12.63;5.88;;;12.00;99.90;;;;;;7403104;19;19922;-72
2023/03/22 00:30:16;;;;;;;14.70;6.53;;;12.00;99.90;;;;;;7399562;19;19949;-74
2023/03/22 00:32:42;;;;;;;12.30;5.15;;;12.10;99.90;;;;;;7402938;19;20590;-73
2023/03/22 00:35:09;;;;;;;12.25;5.80;;;12.10;99.90;;;;;;7407750;19;19911;-74
2023/03/22 00:37:37;;;;;;;8.85;5.43;;;12.10;99.90;;;;;;7409304;19;19978;-72
2023/03/22 00:40:07;;;;;;;10.93;4.72;;;12.10;99.90;;;;;;7406618;19;19911;-73
2023/03/22 00:42:37;;;;;;;12.73;4.80;;;12.00;99.90;;;;;;7408842;19;20335;-72
2023/03/22 00:45:05;;;;;;;11.90;4.75;;;11.90;99.90;;;;;;7407670;19;20358;-73
2023/03/22 00:47:31;;;;;;;11.43;4.90;;;11.80;99.90;;;;;;7378227;19;19935;-73
2023/03/22 00:49:57;;;;;;;12.40;5.53;;;11.80;99.90;;;;;;7406443;19;19914;-73
2023/03/22 00:52:23;;;;;;;15.05;6.65;;;11.80;99.90;;;;;;7405354;19;19922;-73
2023/03/22 00:54:49;;;;;;;19.80;7.22;;;11.80;99.90;;;;;;7406350;19;19926;-73
2023/03/22 00:57:15;;;;;;;18.13;6.28;;;11.80;99.90;;;;;;7405084;19;20343;-73
2023/03/22 00:59:41;;;;;;;16.20;6.68;;;11.80;99.90;;;;;;7407759;19;19958;-72
2023/03/22 01:02:08;;;;;;;15.25;6.88;;;11.80;99.90;;;;;;7405546;19;19918;-72
2023/03/22 01:04:35;;;;;;;12.45;6.45;;;11.80;99.90;;;;;;7406400;19;19911;-73
2023/03/22 01:07:04;;;;;;;13.85;6.57;;;11.80;99.90;;;;;;7408547;19;19906;-72
2023/03/22 01:09:32;;;;;;;13.00;6.50;;;11.80;99.90;;;;;;7408272;19;19938;-73
2023/03/22 01:11:59;;;;;;;13.65;5.40;;;11.80;99.90;;;;;;7407768;19;19911;-73
2023/03/22 01:14:25;;;;;;;;;;;11.70;99.90;;;;;;7408211;19;19956;-74
2023/03/22 01:16:56;;;;;;;14.45;5.40;;;11.70;99.90;;;;;;7408419;19;19919;-74
2023/03/22 01:19:23;;;;;;;12.15;5.22;;;11.70;99.90;;;;;;7406755;19;19965;-72
2023/03/22 01:21:49;;;;;;;12.88;5.43;;;11.70;99.90;;;;;;7406829;19;19950;-73
2023/03/22 01:24:15;;;;;;;16.65;5.75;;;11.80;99.90;;;;;;7405415;19;19936;-73
2023/03/22 01:26:41;;;;;;;12.52;5.40;;;11.70;99.90;;;;;;7404986;19;19918;-73
2023/03/22 01:29:08;;;;;;;15.05;5.13;;;11.70;99.90;;;;;;7406665;19;19914;-73
2023/03/22 01:31:33;;;;;;;12.10;5.00;;;11.60;99.90;;;;;;7405887;19;20434;-73
2023/03/22 01:33:59;;;;;;;15.50;5.55;;;11.70;99.90;;;;;;7406442;19;19910;-73
2023/03/22 01:36:25;;;;;;;15.32;6.20;;;11.60;99.90;;;;;;7405257;19;19911;-73
2023/03/22 01:38:51;;;;;;;15.63;6.28;;;11.50;99.90;;;;;;7406067;19;20261;-73
2023/03/22 01:41:17;;;;;;;16.33;6.90;;;11.50;99.90;;;;;;7403907;19;19918;-73
2023/03/22 01:43:43;;;;;;;13.80;6.70;;;11.50;99.90;;;;;;7405259;19;19918;-73
2023/03/22 01:46:08;;;;;;;18.73;8.40;;;11.40;99.90;;;;;;7404381;19;19923;-73
2023/03/22 01:48:47;;;;;;;19.90;9.55;;;11.60;99.90;;;;;;7404062;19;19981;-74
2023/03/22 01:51:21;;;;;;;20.20;9.05;;;11.60;99.90;;;;;;7403798;19;19930;-73
2023/03/22 01:53:53;;;;;;;23.70;10.60;;;11.70;99.90;;;;;;7406736;19;20335;-72
2023/03/22 01:56:22;;;;;;;17.80;8.50;;;11.70;99.90;;;;;;7407001;19;19923;-73
2023/03/22 01:58:49;;;;;;;20.42;9.27;;;11.70;99.90;;;;;;7404596;19;19931;-73
2023/03/22 02:01:16;;;;;;;19.98;9.38;;;11.80;99.90;;;;;;7405613;19;19914;-73
2023/03/22 02:04:06;;;;;;;20.75;9.27;;;12.00;99.90;;;;;;7402327;19;19914;-73
2023/03/22 02:06:36;;;;;;;17.88;8.98;;;11.90;99.90;;;;;;7406358;19;19922;-72
2023/03/22 02:09:04;;;;;;;18.67;8.52;;;11.80;99.90;;;;;;7404844;19;20299;-74
2023/03/22 02:11:35;;;;;;;17.40;8.20;;;11.70;99.90;;;;;;7405255;19;19943;-73
2023/03/22 02:14:24;;;;;;;16.15;8.20;;;11.60;99.90;;;;;;7406250;19;20011;-74
2023/03/22 02:17:05;;;;;;;17.35;8.25;;;11.60;99.90;;;;;;7401373;19;19935;-73
2023/03/22 02:19:50;;;;;;;20.88;8.40;;;11.60;99.90;;;;;;7402737;19;19907;-72
2023/03/22 02:22:38;;;;;;;20.40;8.52;;;11.60;99.90;;;;;;7400757;19;19919;-73
2023/03/22 02:25:28;;;;;;;16.30;8.00;;;11.60;99.90;;;;;;7403402;19;19935;-73
2023/03/22 02:28:12;;;;;;;15.75;7.22;;;11.60;99.90;;;;;;7404255;19;19951;-73
2023/03/22 02:30:48;;;;;;;17.60;7.63;;;11.40;99.90;;;;;;7373399;19;19970;-73
2023/03/22 02:33:28;;;;;;;14.73;7.55;;;11.30;99.90;;;;;;7403006;19;19919;-73
2023/03/22 02:36:36;;;;;;;16.80;7.63;;;11.20;99.90;;;;;;7403715;19;19921;-72
2023/03/22 02:39:30;;;;;;;17.92;8.35;;;11.20;99.90;;;;;;7371203;19;20422;-73
2023/03/22 02:42:34;;;;;;;17.52;7.10;;;11.20;99.90;;;;;;7403915;19;19941;-75
2023/03/22 02:45:14;;;;;;;13.65;7.40;;;11.20;99.90;;;;;;7399948;19;20339;-73
2023/03/22 02:47:55;;;;;;;14.43;7.18;;;11.10;99.90;;;;;;7403542;19;19918;-75
2023/03/22 02:50:40;;;;;;;15.77;7.78;;;11.00;99.90;;;;;;7403159;19;20355;-74
2023/03/22 02:53:16;;;;;;;16.50;7.72;;;11.20;99.90;;;;;;7380684;19;20347;-72
2023/03/22 02:55:47;;;;;;;14.88;7.68;;;11.30;99.90;;;;;;7403267;19;19925;-72
2023/03/22 02:58:20;;;;;;;16.95;7.65;;;11.30;99.90;;;;;;7402699;19;19923;-73
2023/03/22 03:00:50;;;;;;;17.05;7.78;;;11.20;99.90;;;;;;7403902;19;19915;-72
2023/03/22 03:03:18;;;;;;;17.45;8.27;;;11.30;99.90;;;;;;7403184;19;19918;-75
2023/03/22 03:05:56;;;;;;;14.90;7.88;;;11.20;99.90;;;;;;7403474;19;19926;-74
2023/03/22 03:08:24;;;;;;;17.30;7.88;;;11.30;99.90;;;;;;7401151;19;19974;-73
2023/03/22 03:10:51;;;;;;;16.20;7.70;;;11.30;99.90;;;;;;7403785;19;19915;-74
2023/03/22 03:13:17;;;;;;;17.73;8.15;;;11.20;99.90;;;;;;7402623;19;19941;-74
2023/03/22 03:15:47;;;;;;;16.75;8.32;;;11.10;99.90;;;;;;7404802;19;20351;-73
2023/03/22 03:18:19;;;;;;;15.70;8.65;;;11.10;99.90;;;;;;7400524;19;19918;-73
2023/03/22 03:21:16;;;;;;;16.20;7.82;;;11.10;99.90;;;;;;7405658;19;19922;-73
2023/03/22 03:24:24;;;;;;;17.23;9.73;;;11.00;99.90;;;;;;7398823;19;19914;-73
2023/03/22 03:27:45;;;;;;;16.70;7.93;;;11.10;99.90;;;;;;7401360;19;19914;-76
2023/03/22 03:30:20;;;;;;;19.90;8.63;;;11.20;99.90;;;;;;7401233;19;20271;-72
2023/03/22 03:32:52;;;;;;;17.95;9.55;;;11.20;99.90;;;;;;7401688;19;19915;-72
2023/03/22 03:35:31;;;;;;;18.13;9.23;;;11.20;99.90;;;;;;7401846;19;19914;-73
2023/03/22 03:38:07;;;;;;;15.57;9.48;;;11.20;99.90;;;;;;7400848;19;19918;-73
2023/03/22 03:41:05;;;;;;;19.92;10.57;;;11.20;99.90;;;;;;7398437;19;20488;-74
2023/03/22 03:43:33;;;;;;;21.92;10.27;;;11.20;99.90;;;;;;7400571;19;19977;-75
2023/03/22 03:45:59;;;;;;;17.60;9.95;;;11.20;99.90;;;;;;7401629;19;20689;-73
2023/03/22 03:48:28;;;;;;;21.50;9.77;;;11.10;99.90;;;;;;7403571;19;19926;-73
2023/03/22 03:50:56;;;;;;;19.52;10.25;;;11.00;99.90;;;;;;7402862;19;19910;-73
2023/03/22 03:53:22;;;;;;;18.55;9.52;;;11.00;99.90;;;;;;7401358;19;19935;-73
2023/03/22 03:55:48;;;;;;;19.38;10.23;;;11.00;99.90;;;;;;7379704;19;19948;-74
2023/03/22 03:58:17;;;;;;;19.80;9.98;;;11.00;99.90;;;;;;7400677;19;20331;-74
2023/03/22 04:00:45;;;;;;;19.27;10.57;;;11.00;99.90;;;;;;7401878;19;19911;-73
2023/03/22 04:03:11;;;;;;;20.10;10.07;;;10.90;99.90;;;;;;7399863;19;20379;-72
2023/03/22 04:05:37;;;;;;;18.55;10.18;;;10.90;99.90;;;;;;7399662;19;19926;-75
2023/03/22 04:08:03;;;;;;;18.63;10.27;;;10.90;99.90;;;;;;7403150;19;19915;-73
2023/03/22 04:10:29;;;;;;;27.15;11.00;;;10.90;99.90;;;;;;7406987;19;20969;-72
2023/03/22 04:12:55;;;;;;;17.02;9.90;;;11.00;99.90;;;;;;7406208;19;20264;-73
2023/03/22 04:15:20;;;;;;;24.98;10.40;;;10.90;99.90;;;;;;7407024;19;19919;-72
2023/03/22 04:17:46;;;;;;;19.23;10.05;;;10.80;99.90;;;;;;7410227;19;19927;-72
2023/03/22 04:20:13;;;;;;;22.08;10.13;;;10.80;99.90;;;;;;7405803;19;19915;-72
2023/03/22 04:22:40;;;;;;;20.05;10.32;;;10.70;99.90;;;;;;7406240;19;19915;-73
2023/03/22 04:25:11;;;;;;;19.25;9.93;;;10.70;99.90;;;;;;7372667;19;19929;-74
2023/03/22 04:27:41;;;;;;;19.33;10.40;;;10.70;99.90;;;;;;7408325;19;19921;-73
2023/03/22 04:30:10;;;;;;;20.75;9.82;;;10.80;99.90;;;;;;7373701;19;19925;-73
2023/03/22 04:32:36;;;;;;;19.52;9.63;;;10.80;99.90;;;;;;7409111;19;19918;-73
2023/03/22 04:35:02;;;;;;;17.90;9.60;;;10.70;99.90;;;;;;7406905;19;19911;-73
2023/03/22 04:37:30;;;;;;;19.40;10.45;;;10.80;99.90;;;;;;7406255;19;20331;-73
2023/03/22 04:39:56;;;;;;;16.23;9.98;;;10.80;99.90;;;;;;7406916;19;20396;-74
2023/03/22 04:42:22;;;;;;;23.88;10.77;;;10.90;99.90;;;;;;7405583;19;23041;-76
2023/03/22 04:44:48;;;;;;;20.08;10.90;;;11.00;99.90;;;;;;7406041;19;19914;-72
2023/03/22 04:47:15;;;;;;;22.25;10.10;;;10.90;99.90;;;;;;7406963;19;20386;-74
2023/03/22 04:49:41;;;;;;;21.40;11.30;;;10.80;99.90;;;;;;7406620;19;20338;-74
2023/03/22 04:52:06;;;;;;;21.95;11.90;;;10.70;99.90;;;;;;7404548;19;19922;-73
2023/03/22 04:54:32;;;;;;;19.67;10.38;;;10.60;99.90;;;;;;7408857;19;19919;-73
2023/03/22 04:56:59;;;;;;;18.92;10.30;;;10.60;99.90;;;;;;7407134;19;19918;-73
2023/03/22 04:59:25;;;;;;;;;;;10.60;99.90;;;;;;7409032;19;20003;-73
2023/03/22 05:01:51;;;;;;;18.33;8.68;;;10.60;99.90;;;;;;7404673;19;19919;-73
2023/03/22 05:04:17;;;;;;;19.83;9.50;;;10.60;99.90;;;;;;7404236;19;19918;-74
2023/03/22 05:06:44;;;;;;;18.38;8.57;;;10.70;99.90;;;;;;7404785;19;20297;-73
2023/03/22 05:09:10;;;;;;;17.85;9.30;;;10.80;99.90;;;;;;7406256;19;19943;-72
2023/03/22 05:11:36;;;;;;;16.60;9.00;;;10.70;99.90;;;;;;7403103;19;19923;-74
2023/03/22 05:14:02;;;;;;;18.52;9.88;;;10.60;99.90;;;;;;7403429;19;19998;-74
2023/03/22 05:16:29;;;;;;;17.85;9.00;;;10.60;99.90;;;;;;7373772;19;19921;-74
2023/03/22 05:18:55;;;;;;;20.17;10.02;;;10.50;99.90;;;;;;7403977;19;20247;-73
2023/03/22 05:21:27;;;;;;;21.65;10.80;;;10.50;99.90;;;;;;7400602;19;19982;-73
2023/03/22 05:23:57;;;;;;;18.25;9.43;;;10.40;99.90;;;;;;7405889;19;19919;-74
2023/03/22 05:26:25;;;;;;;17.77;9.23;;;10.50;99.90;;;;;;7403348;19;20031;-73
2023/03/22 05:28:52;;;;;;;18.23;9.85;;;10.40;99.90;;;;;;7405051;19;20367;-72
2023/03/22 05:31:20;;;;;;;20.85;10.73;;;10.40;99.90;;;;;;7405390;19;19941;-73
2023/03/22 05:33:49;;;;;;;18.15;9.35;;;10.30;99.90;;;;;;7407229;19;19918;-73
2023/03/22 05:36:15;;;;;;;16.55;8.73;;;10.30;99.90;;;;;;7401199;19;19951;-73
2023/03/22 05:38:43;;;;;;;16.45;8.45;;;10.30;99.90;;;;;;7404365;19;19923;-74
2023/03/22 05:41:09;;;;;;;17.77;8.52;;;10.30;99.90;;;;;;7404491;19;19986;-73
2023/03/22 05:43:35;;;;;;;16.70;8.43;;;10.40;99.90;;;;;;7404395;19;19931;-73
2023/03/22 05:46:07;;;;;;;19.77;8.70;;;10.60;99.90;;;;;;7405970;19;19911;-72
2023/03/22 05:48:34;;;;;;;15.45;8.77;;;10.60;99.90;;;;;;7404238;19;20255;-72
2023/03/22 05:51:02;;;;;;;;;;;10.60;99.90;;;;;;7407547;19;19922;-74
2023/03/22 05:53:30;;;;;;;18.67;9.45;;;10.50;99.90;;;;;;7404992;19;19942;-73
2023/03/22 05:55:56;;;;;;;16.48;8.98;;;10.50;99.90;;;;;;7405855;19;19919;-73
2023/03/22 05:58:23;;;;;;;21.08;10.73;;;10.60;99.90;;;;;;7404678;19;20033;-73
2023/03/22 06:00:50;;;;;;;22.30;11.02;;;10.70;99.90;;;;;;7403050;19;19922;-74
2023/03/22 06:03:17;;;;;;;;;;;10.80;99.90;;;;;;7407622;19;19914;-73
2023/03/22 06:05:43;;;;;;;19.17;9.93;;;10.80;99.90;;;;;;7402437;19;19915;-74
2023/03/22 06:08:08;;;;;;;23.95;11.75;;;10.90;99.90;;;;;;7403375;19;19915;-73
2023/03/22 06:10:34;;;;;;;18.10;10.85;;;10.90;99.90;;;;;;7405351;19;19917;-74
2023/03/22 06:13:00;;;;;;;21.85;11.27;;;10.90;99.90;;;;;;7404042;19;19919;-74
2023/03/22 06:15:26;;;;;;;22.75;11.18;;;10.90;99.90;;;;;;7370918;19;19938;-74
2023/03/22 06:17:51;;;;;;;23.70;12.80;;;10.90;99.90;;;;;;7406088;19;20240;-74
2023/03/22 06:20:18;;;;;;;22.80;11.15;;;11.00;99.90;;;;;;7403207;19;19915;-74
2023/03/22 06:22:44;;;;;;;23.40;12.15;;;11.00;99.90;;;;;;7403641;19;20343;-73
2023/03/22 06:25:10;;;;;;;26.55;12.82;;;11.10;99.90;;;;;;7402325;19;19918;-74
2023/03/22 06:27:36;;;;;;;25.50;12.70;;;11.20;99.90;;;;;;7405034;19;20269;-75
2023/03/22 06:30:02;;;;;;;24.27;12.32;;;11.20;99.90;;;;;;7404061;19;19919;-74
2023/03/22 06:32:28;;;;;;;22.95;11.75;;;11.20;99.90;;;;;;7404033;19;20620;-74
2023/03/22 06:34:54;;;;;;;25.00;13.43;;;11.30;99.90;;;;;;7403979;19;19998;-74
2023/03/22 06:37:20;;;;;;;22.67;12.13;;;11.30;99.90;;;;;;7400184;19;20612;-73
2023/03/22 06:39:47;;;;;;;25.48;12.38;;;11.40;99.90;;;;;;7405697;19;20393;-73
2023/03/22 06:42:12;;;;;;;25.52;12.95;;;11.40;99.90;;;;;;7400101;19;19910;-72
2023/03/22 06:44:42;;;;;;;22.88;12.82;;;11.40;99.90;;;;;;7403009;19;19921;-73
2023/03/22 06:47:09;;;;;;;21.67;12.70;;;11.40;99.90;;;;;;7401524;19;20355;-73
2023/03/22 06:49:35;;;;;;;22.08;12.95;;;11.50;99.90;;;;;;7406434;19;19911;-73
2023/03/22 06:52:00;;;;;;;27.60;14.02;;;11.50;99.90;;;;;;7404624;19;20319;-75
2023/03/22 06:54:26;;;;;;;25.73;13.77;;;11.60;99.90;;;;;;7402634;19;19923;-74
2023/03/22 06:56:52;;;;;;;24.52;14.65;;;11.60;99.90;;;;;;7402234;19;20339;-73
2023/03/22 06:59:19;;;;;;;22.23;12.55;;;11.60;99.90;;;;;;7401361;19;19945;-74
2023/03/22 07:01:44;;;;;;;25.95;13.38;;;11.70;99.90;;;;;;7401150;19;19919;-74
2023/03/22 07:04:10;;;;;;;26.17;13.80;;;11.70;99.90;;;;;;7402662;19;19921;-73
2023/03/22 07:06:36;;;;;;;26.75;13.65;;;11.80;99.90;;;;;;7401526;19;19914;-74
2023/03/22 07:09:02;;;;;;;25.08;14.02;;;11.90;99.90;;;;;;7403262;19;19986;-74
2023/03/22 07:11:28;;;;;;;26.33;13.57;;;12.00;99.90;;;;;;7400441;19;20288;-73
2023/03/22 07:13:54;;;;;;;25.30;13.43;;;12.20;99.90;;;;;;7402551;19;19926;-73
2023/03/22 07:16:20;;;;;;;27.77;13.93;;;12.30;99.90;;;;;;7399127;19;19917;-73
2023/03/22 07:18:47;;;;;;;26.50;13.45;;;12.40;99.90;;;;;;7382422;19;19918;-73
2023/03/22 07:21:13;;;;;;;23.92;13.77;;;12.50;99.90;;;;;;7398146;19;19929;-73
2023/03/22 07:23:39;;;;;;;25.80;14.27;;;12.60;99.90;;;;;;7401522;19;20340;-73
2023/03/22 07:26:05;;;;;;;29.00;14.38;;;12.70;99.90;;;;;;7401133;19;19924;-73
2023/03/22 07:28:31;;;;;;;27.15;14.05;;;12.80;99.90;;;;;;7371792;19;19926;-73
2023/03/22 07:31:02;;;;;;;26.33;14.80;;;12.90;99.90;;;;;;7401744;19;19911;-73
2023/03/22 07:33:27;;;;;;;26.30;14.63;;;12.90;99.90;;;;;;7402871;19;19915;-73
2023/03/22 07:35:53;;;;;;;24.77;13.07;;;13.00;99.90;;;;;;7400457;19;19935;-73
2023/03/22 07:38:19;;;;;;;25.23;14.65;;;13.10;99.90;;;;;;7398967;19;19921;-73
2023/03/22 07:40:45;;;;;;;30.23;14.30;;;13.20;99.90;;;;;;7402043;19;19926;-73
2023/03/22 07:43:12;;;;;;;25.15;13.25;;;13.30;99.90;;;;;;7396322;19;20375;-73
2023/03/22 07:45:39;;;;;;;24.70;13.65;;;13.30;99.90;;;;;;7400590;19;19921;-74
2023/03/22 07:48:05;;;;;;;23.33;14.50;;;13.40;99.90;;;;;;7399990;19;20258;-72
2023/03/22 07:50:31;;;;;;;27.98;13.90;;;13.50;99.90;;;;;;7399904;19;19965;-73
2023/03/22 07:52:57;;;;;;;23.98;13.30;;;13.50;99.90;;;;;;7399369;19;19918;-73
2023/03/22 07:55:23;;;;;;;22.92;13.40;;;13.60;99.90;;;;;;7399433;19;19931;-72
2023/03/22 07:57:48;;;;;;;23.20;12.50;;;13.70;99.90;;;;;;7380520;19;19953;-73
2023/03/22 08:00:16;;;;;;;25.25;13.35;;;13.80;99.90;;;;;;7400401;19;19925;-73
2023/03/22 08:02:44;;;;;;;24.35;13.05;;;13.90;99.90;;;;;;7401330;19;19937;-73
2023/03/22 08:05:12;;;;;;;27.88;13.30;;;14.00;99.90;;;;;;7397360;19;19982;-74
2023/03/22 08:07:37;;;;;;;22.50;11.80;;;14.10;99.90;;;;;;7401194;19;19925;-73
2023/03/22 08:10:04;;;;;;;20.83;11.60;;;14.20;99.90;;;;;;7400862;19;19918;-73
2023/03/22 08:12:31;;;;;;;22.90;12.45;;;14.20;99.90;;;;;;7401419;19;19918;-74
2023/03/22 08:14:57;;;;;;;27.50;13.65;;;14.30;99.90;;;;;;7402692;19;19915;-74
2023/03/22 08:17:24;;;;;;;27.52;14.02;;;14.40;99.90;;;;;;7390317;19;19938;-74
2023/03/22 08:19:51;;;;;;;30.02;14.65;;;14.60;99.90;;;;;;7398537;19;19922;-76
2023/03/22 08:25:06;;;;;;;25.80;14.38;;;14.80;99.60;;;;;;7396447;19;19919;-73
2023/03/22 08:27:32;;;;;;;26.83;14.52;;;14.80;99.30;;;;;;7399263;19;19914;-74
2023/03/22 08:29:58;;;;;;;26.20;13.63;;;15.00;98.80;;;;;;7400486;19;20260;-74
2023/03/22 08:32:24;;;;;;;28.42;13.75;;;15.10;98.70;;;;;;7397739;19;20708;-75
2023/03/22 08:34:50;;;;;;;21.08;13.45;;;15.30;98.20;;;;;;7399883;19;19914;-74
2023/03/22 08:37:19;;;;;;;26.08;14.43;;;15.50;97.80;;;;;;7400262;19;20286;-74
2023/03/22 08:39:45;;;;;;;24.38;13.68;;;17.30;96.40;;;;;;7399073;19;19926;-74
2023/03/22 08:42:11;;;;;;;22.95;13.88;;;19.30;91.60;;;;;;7396100;19;19942;-73
2023/03/22 08:44:40;;;;;;;19.30;11.63;;;20.60;89.70;;;;;;7390448;19;19926;-75
2023/03/22 08:47:06;;;;;;;18.67;11.38;;;21.30;85.20;;;;;;7388851;19;19994;-74
2023/03/22 08:49:32;;;;;;;19.92;12.75;;;21.50;82.10;;;;;;7401183;19;19922;-74
2023/03/22 08:51:58;;;;;;;23.45;13.60;;;21.90;82.20;;;;;;7398942;19;19910;-75
2023/03/22 08:54:26;;;;;;;23.38;12.52;;;21.80;80.20;;;;;;7391440;19;19934;-74
2023/03/22 08:56:51;;;;;;;21.20;13.40;;;21.90;79.90;;;;;;7396952;19;19926;-73
2023/03/22 08:59:17;;;;;;;22.25;11.80;;;22.50;77.90;;;;;;7400606;19;19915;-75
2023/03/22 09:01:43;;;;;;;18.33;12.15;;;23.10;75.70;;;;;;7394299;19;19926;-74
2023/03/22 09:04:09;;;;;;;20.42;12.70;;;23.30;73.90;;;;;;7401452;19;19915;-74
2023/03/22 09:06:36;;;;;;;20.27;12.85;;;23.20;75.60;;;;;;7403376;19;19970;-73
2023/03/22 09:09:02;;;;;;;19.35;11.10;;;23.50;74.10;;;;;;7405758;19;19922;-74
2023/03/22 09:11:28;;;;;;;22.90;13.05;;;23.50;74.30;;;;;;7400204;19;19919;-74
2023/03/22 09:13:54;;;;;;;21.75;11.93;;;23.10;74.60;;;;;;7399907;19;19911;-75
2023/03/22 09:16:19;;;;;;;19.98;12.02;;;23.20;73.80;;;;;;7399174;19;19943;-75
2023/03/22 09:18:45;;;;;;;20.52;11.82;;;22.90;75.50;;;;;;7399722;19;19915;-75
2023/03/22 09:21:11;;;;;;;20.45;12.57;;;23.00;75.10;;;;;;7378030;19;19999;-75
2023/03/22 09:23:37;;;;;;;;;;;21.90;77.80;;;;;;7406236;19;19922;-74
2023/03/22 09:26:06;;;;;;;21.67;11.52;;;21.90;77.60;;;;;;7401196;19;20304;-74
2023/03/22 09:28:34;;;;;;;19.98;11.45;;;21.80;77.20;;;;;;7401911;19;19911;-76
2023/03/22 09:31:06;;;;;;;20.58;10.23;;;21.30;80.10;;;;;;7395622;19;20335;-74
2023/03/22 09:33:32;;;;;;;19.67;10.30;;;22.30;77.70;;;;;;7407485;19;19914;-74
2023/03/22 09:35:58;;;;;;;16.67;9.73;;;22.20;75.90;;;;;;7405620;19;19918;-75
2023/03/22 09:38:26;;;;;;;16.52;9.70;;;21.70;76.40;;;;;;7401505;19;19974;-73
2023/03/22 09:40:59;;;;;;;17.55;10.50;;;22.10;75.30;;;;;;7397384;19;20400;-75
2023/03/22 09:43:27;;;;;;;18.42;10.43;;;22.20;75.30;;;;;;7394158;19;19923;-74
2023/03/22 09:45:54;;;;;;;18.90;11.23;;;22.40;76.30;;;;;;7397914;19;19922;-74
2023/03/22 09:48:36;;;;;;;18.67;10.20;;;22.60;75.30;;;;;;7399392;19;19919;-73
2023/03/22 09:51:04;;;;;;;17.88;10.18;;;22.70;75.50;;;;;;7396025;19;19918;-74
2023/03/22 09:53:32;;;;;;;22.98;11.55;;;22.20;76.20;;;;;;7399213;19;19921;-74
2023/03/22 09:56:15;;;;;;;17.77;10.05;;;21.70;78.10;;;;;;7395454;19;19935;-75
2023/03/22 09:59:05;;;;;;;18.30;9.07;;;20.40;80.50;;;;;;7396789;19;20540;-75
2023/03/22 10:01:57;;;;;;;20.77;10.30;;;20.60;80.40;;;;;;7397460;19;19931;-75
2023/03/22 10:04:46;;;;;;;20.02;10.80;;;20.80;80.70;;;;;;7400884;19;19961;-76
2023/03/22 10:07:30;;;;;;;19.48;10.93;;;20.50;81.20;;;;;;7395553;19;19915;-75
2023/03/22 10:10:16;;;;;;;19.60;10.32;;;19.40;83.30;;;;;;7394912;19;19929;-74
2023/03/22 10:13:07;;;;;;;21.48;10.80;;;19.30;84.20;;;;;;7403818;19;20497;-74
2023/03/22 10:15:40;;;;;;;20.30;11.27;;;18.80;85.60;;;;;;7402957;19;19960;-74
2023/03/22 10:18:17;;;;;;;19.88;11.50;;;18.30;87.80;;;;;;7401621;19;19914;-74
2023/03/22 10:21:17;;;;;;;17.90;10.65;;;18.10;90.00;;;;;;7404801;19;20382;-76
2023/03/22 10:23:49;;;;;;;20.67;11.85;;;18.30;89.40;;;;;;7399279;19;19906;-74
2023/03/22 10:26:23;;;;;;;20.85;10.93;;;18.70;89.30;;;;;;7403609;19;19918;-73
2023/03/22 10:29:04;;;;;;;20.15;10.20;;;19.30;86.90;;;;;;7401332;19;19911;-74
2023/03/22 10:31:32;;;;;;;18.88;10.80;;;19.40;86.70;;;;;;7404854;19;19981;-76
2023/03/22 10:34:10;;;;;;;18.70;11.32;;;19.30;87.00;;;;;;7401335;19;19957;-75
2023/03/22 10:36:39;;;;;;;17.40;11.90;;;19.10;87.40;;;;;;7404141;19;19940;-75
2023/03/22 10:39:28;;;;;;;19.20;11.57;;;19.50;87.30;;;;;;7402253;19;19911;-76
2023/03/22 10:41:56;;;;;;;17.58;11.48;;;19.80;87.20;;;;;;7404047;19;19919;-75
2023/03/22 10:44:24;;;;;;;17.98;10.35;;;19.50;88.70;;;;;;7399908;19;20346;-73
2023/03/22 10:46:51;;;;;;;20.08;11.05;;;19.50;88.40;;;;;;7404832;19;20264;-76
2023/03/22 10:49:36;;;;;;;18.25;11.57;;;19.60;88.60;;;;;;7403885;19;20346;-74
2023/03/22 10:52:25;;;;;;;19.30;11.07;;;19.60;88.50;;;;;;7402366;19;19918;-74
2023/03/22 10:54:51;;;;;;;19.85;11.63;;;18.90;89.50;;;;;;7402542;19;19942;-75
2023/03/22 10:57:16;;;;;;;23.10;11.88;;;19.00;90.10;;;;;;7400931;19;19913;-74
2023/03/22 10:59:55;;;;;;;22.17;10.88;;;19.20;89.40;;;;;;7404121;19;19918;-74
2023/03/22 11:02:29;;;;;;;18.98;11.07;;;19.60;89.00;;;;;;7401361;19;20240;-75
2023/03/22 11:05:01;;;;;;;18.63;10.32;;;19.50;87.70;;;;;;7403171;19;20418;-75
2023/03/22 11:07:30;;;;;;;18.95;10.15;;;19.50;88.30;;;;;;7380646;19;19942;-75
2023/03/22 11:10:20;;;;;;;20.55;10.63;;;20.10;87.60;;;;;;7402689;19;19978;-73
2023/03/22 11:12:55;;;;;;;19.05;9.32;;;19.80;87.40;;;;;;7401788;19;19936;-74
2023/03/22 11:15:28;;;;;;;19.50;10.95;;;20.60;85.40;;;;;;7372350;19;19983;-74
2023/03/22 11:18:06;;;;;;;16.48;10.25;;;19.90;85.80;;;;;;7393688;19;19914;-73
2023/03/22 11:20:34;;;;;;;18.73;10.32;;;19.50;87.00;;;;;;7388755;19;19911;-74
2023/03/22 11:23:03;;;;;;;24.27;11.88;;;19.80;87.60;;;;;;7399600;19;20679;-74
2023/03/22 11:25:33;;;;;;;18.95;10.65;;;19.50;88.60;;;;;;7399249;19;19982;-73
2023/03/22 11:28:18;;;;;;;19.83;10.27;;;19.90;86.40;;;;;;7393396;19;21349;-74
2023/03/22 11:31:09;;;;;;;18.63;9.07;;;20.00;87.50;;;;;;7391421;19;19978;-74
2023/03/22 11:33:36;;;;;;;14.40;9.07;;;19.70;87.90;;;;;;7376777;19;19922;-74
2023/03/22 11:36:14;;;;;;;14.90;8.63;;;19.50;87.70;;;;;;7387932;19;21116;-74
2023/03/22 11:38:42;;;;;;;16.48;8.45;;;19.40;88.20;;;;;;7383201;19;19918;-74
2023/03/22 11:41:13;;;;;;;20.15;7.68;;;20.40;86.80;;;;;;7381949;19;19978;-73
2023/03/22 11:43:47;;;;;;;16.60;7.47;;;20.60;85.90;;;;;;7389304;19;19910;-74
2023/03/22 11:46:18;;;;;;;14.82;7.22;;;20.90;84.70;;;;;;7393895;19;19915;-74
2023/03/22 11:48:46;;;;;;;13.13;7.30;;;20.20;85.90;;;;;;7365047;19;19922;-74
2023/03/22 11:51:24;;;;;;;13.43;7.28;;;20.30;86.40;;;;;;7398059;19;19914;-74
2023/03/22 11:54:06;;;;;;;14.95;7.07;;;19.60;85.00;;;;;;7395018;19;19994;-74
2023/03/22 11:56:33;;;;;;;13.70;7.28;;;20.20;86.60;;;;;;7389336;19;20327;-73
2023/03/22 11:59:06;;;;;;;14.00;6.13;;;20.30;86.70;;;;;;7400795;19;19919;-73
2023/03/22 12:01:55;;;;;;;11.80;7.13;;;20.50;85.70;;;;;;7395031;19;19918;-76
2023/03/22 12:04:26;;;;;;;10.93;5.72;;;20.90;84.50;;;;;;7392484;19;20294;-74
2023/03/22 12:06:57;;;;;;;13.13;6.90;;;20.90;84.50;;;;;;7398605;19;19937;-72
2023/03/22 12:09:34;;;;;;;10.25;6.07;;;20.70;84.20;;;;;;7389442;19;19935;-74
2023/03/22 12:12:03;;;;;;;14.82;5.95;;;20.60;85.30;;;;;;7390315;19;20003;-73
2023/03/22 12:14:53;;;;;;;12.45;5.68;;;21.30;83.40;;;;;;7390035;19;20728;-74
2023/03/22 12:17:32;;;;;;;10.75;5.80;;;21.20;83.20;;;;;;7395108;19;19914;-74
2023/03/22 12:20:20;;;;;;;11.68;6.13;;;21.30;83.70;;;;;;7397170;19;19923;-74
2023/03/22 12:22:54;;;;;;;13.50;5.82;;;20.60;83.70;;;;;;7388901;19;20379;-75
2023/03/22 12:25:34;;;;;;;11.52;5.97;;;21.20;83.90;;;;;;7391338;19;19910;-73
2023/03/22 12:28:08;;;;;;;16.23;6.85;;;21.20;83.90;;;;;;7355614;19;19923;-74
2023/03/22 12:30:44;;;;;;;15.90;6.13;;;20.50;85.30;;;;;;7394982;19;19914;-73
2023/03/22 12:33:28;;;;;;;17.58;6.35;;;19.90;85.10;;;;;;7405445;19;19986;-73
2023/03/22 12:36:01;;;;;;;13.40;5.57;;;19.80;86.00;;;;;;7370491;19;19922;-72
2023/03/22 12:38:47;;;;;;;;;;;20.30;86.00;;;;;;7399645;19;20271;-74
2023/03/22 12:41:24;;;;;;;10.48;5.38;;;20.40;85.90;;;;;;7376986;19;19915;-73
2023/03/22 12:43:54;;;;;;;12.75;6.03;;;21.00;84.60;;;;;;7404399;19;19950;-72
2023/03/22 12:46:25;;;;;;;12.50;5.38;;;21.00;84.10;;;;;;7394454;19;19927;-74
2023/03/22 12:49:03;;;;;;;10.68;6.03;;;20.50;85.10;;;;;;7391962;19;19914;-73
2023/03/22 12:51:29;;;;;;;15.70;5.57;;;20.50;84.90;;;;;;7403802;19;19926;-74
2023/03/22 12:53:57;;;;;;;10.65;5.30;;;18.90;87.00;;;;;;7391665;19;19921;-75